KCMI/CMI METAR and TAF weather

Enter ICAO airport designator
Station Type Date Time Source
KCMI METAR 2021/03/05 00:53 UTC NOAA

KCMI 050053Z 03013KT 10SM CLR 03/M03 A3029 RMK AO2 SLP264 T00281028


Station Type Date Time Source
KCMI Decoded METAR 2021/03/05 00:53 UTC NOAA

UNIV OF ILLINOIS-WILLARD, IL, United States (KCMI) 40-02N 088-16W 228M
Mar 04, 2021 - 07:53 PM EST / 2021.03.05 0053 UTC
Wind: from the NNE (030 degrees) at 15 MPH (13 KT):0
Visibility: 10 mile(s):0
Sky conditions: clear
Temperature: 37.0 F (2.8 C)
Dew Point: 27.0 F (-2.8 C)
Relative Humidity: 66%
Pressure (altimeter): 30.29 in. Hg (1025 hPa)
ob: KCMI 050053Z 03013KT 10SM CLR 03/M03 A3029 RMK AO2 SLP264 T00281028
cycle: 1

Station Type Date Time Source
KCMI TAF 2021/03/04 18:33 UTC NOAA

TAF KCMI 041730Z 0418/0518 05010KT P6SM SCT070

Example: see airport list